Pathein, Burma
Current Conditions -  °F | °C
As of 2:30 PM on Tuesday 27 Jan 2015 (Local Time) from VYYY Reporting Station
Clear Clear  
Wind Chill: 32°   Ceiling: Unl
Heat Index: 32°   Visibility: 6mi
Dew Point: 16°   Wind: 3mph
Humidity: 38%   Direction: 270°W
Pressure: 29.85"   Gusts: NA
Location:  16.78°N, 94.73°E
Report Text: VYYY 270830Z 27003KT 9000 NSC 32/16 Q1011 NOSIG
Loading
Personal Weather Stations






























Interactive Weather Map New forecast layout! Learn more

10-Day Weather Forecast

Advertisements
Track Severe Weather on mobile